Athol, Kansas
Current Conditions -  °F | °C
As of 8:35 PM on Sunday 21 Dec 2014 (Local Time) from KHDE Reporting Station
Overcast Overcast  
Wind Chill:   Ceiling: 400
Heat Index:   Visibility: 7mi
Dew Point:   Wind: 8mph
Humidity: 95%   Direction: 180°S
Pressure: 29.54"   Gusts: 17mph
Location:  39.77°N, 98.92°W
Report Text: KHDE 220235Z AUTO 18007G15KT 7SM OVC004 04/03 A2954 RMK AO2 T00380030
Loading
Personal Weather Stations






























Interactive Weather Map New forecast layout! Learn more

10-Day Weather Forecast

Advertisements
Track Severe Weather on mobile